createdAt,value
2022-12-14T00:02:08.685Z,84.24
2022-12-14T00:04:36.914Z,84.88
2022-12-14T00:07:04.753Z,85.05
2022-12-14T00:09:32.735Z,83.84
2022-12-14T00:12:04.073Z,83.78
2022-12-14T00:14:31.916Z,83.89
2022-12-14T00:17:00.106Z,84.30
2022-12-14T00:19:28.031Z,84.52
2022-12-14T00:21:56.253Z,84.87
2022-12-14T00:24:24.472Z,84.11
2022-12-14T00:26:53.055Z,84.47
2022-12-14T00:29:21.011Z,84.77
2022-12-14T00:31:50.402Z,84.54
2022-12-14T00:34:18.241Z,84.01
2022-12-14T00:36:48.991Z,83.67
2022-12-14T00:39:17.244Z,83.49
2022-12-14T00:41:44.945Z,84.07
2022-12-14T00:44:12.739Z,83.57
2022-12-14T00:46:41.254Z,84.47
2022-12-14T00:49:12.313Z,83.79
2022-12-14T00:51:43.512Z,83.40
2022-12-14T00:54:11.394Z,83.02
2022-12-14T00:56:39.179Z,83.30
2022-12-14T00:59:10.282Z,83.25
2022-12-14T01:01:38.156Z,83.34
2022-12-14T01:04:18.148Z,82.97
2022-12-14T01:06:48.607Z,82.92
2022-12-14T01:09:17.500Z,82.81
2022-12-14T01:11:45.862Z,84.56
2022-12-14T01:14:16.470Z,83.77
2022-12-14T01:16:44.345Z,83.14
2022-12-14T01:19:13.707Z,82.65
2022-12-14T01:21:42.486Z,82.80
2022-12-14T01:24:10.598Z,83.56
2022-12-14T01:26:40.277Z,82.70
2022-12-14T01:29:08.759Z,82.54
2022-12-14T01:31:38.348Z,82.33
2022-12-14T01:34:06.609Z,82.40
2022-12-14T01:36:35.987Z,82.91
2022-12-14T01:39:13.902Z,82.70
2022-12-14T01:41:43.506Z,83.65
2022-12-14T01:44:11.350Z,82.59
2022-12-14T01:46:51.041Z,82.83
2022-12-14T01:49:43.174Z,82.47
2022-12-14T01:52:21.717Z,82.46
2022-12-14T01:55:04.013Z,82.69
2022-12-14T01:57:55.632Z,82.08
2022-12-14T02:00:24.105Z,82.15
2022-12-14T02:03:30.850Z,81.72
2022-12-14T02:06:12.527Z,81.74
2022-12-14T02:08:43.617Z,82.31
2022-12-14T02:11:11.713Z,81.85
2022-12-14T02:13:43.475Z,81.75
2022-12-14T02:16:11.907Z,81.90
2022-12-14T02:18:39.743Z,81.93
2022-12-14T02:21:10.159Z,82.38
2022-12-14T02:24:03.131Z,81.97
2022-12-14T02:26:55.865Z,81.73
2022-12-14T02:29:38.631Z,81.60
2022-12-14T02:32:36.677Z,81.55
2022-12-14T02:35:27.070Z,81.85
2022-12-14T02:38:13.160Z,81.72
2022-12-14T02:41:05.354Z,81.37
2022-12-14T02:43:42.181Z,81.61
2022-12-14T02:46:27.107Z,81.58
2022-12-14T02:49:08.321Z,81.80
2022-12-14T02:51:42.629Z,82.01
2022-12-14T02:54:20.713Z,82.50
2022-12-14T02:56:56.525Z,81.75
2022-12-14T02:59:25.006Z,83.08
2022-12-14T03:01:54.722Z,83.43
2022-12-14T03:04:25.830Z,81.96
2022-12-14T03:07:05.448Z,82.81
2022-12-14T03:09:33.856Z,83.11
2022-12-14T03:12:11.112Z,82.72
2022-12-14T03:14:46.776Z,82.95
2022-12-14T03:17:35.840Z,83.53
2022-12-14T03:20:11.891Z,83.10
2022-12-14T03:22:45.432Z,82.84
2022-12-14T03:25:16.936Z,82.50
2022-12-14T03:27:53.896Z,82.21
2022-12-14T03:30:44.315Z,82.18
2022-12-14T03:33:19.216Z,82.73
2022-12-14T03:35:57.133Z,82.27
2022-12-14T03:38:40.031Z,82.41
2022-12-14T03:41:17.276Z,83.17
2022-12-14T03:43:49.834Z,82.53
2022-12-14T03:46:49.742Z,82.40
2022-12-14T03:49:44.117Z,82.68
2022-12-14T03:52:27.473Z,83.94
2022-12-14T03:55:29.663Z,82.91
2022-12-14T03:58:09.137Z,82.64
2022-12-14T04:00:58.096Z,82.81
2022-12-14T04:03:47.620Z,83.89
2022-12-14T04:06:19.981Z,82.71
2022-12-14T04:08:48.104Z,83.43
2022-12-14T04:11:37.537Z,84.20
2022-12-14T04:14:37.645Z,83.17
2022-12-14T04:17:31.824Z,84.05
2022-12-14T04:20:39.515Z,83.03
2022-12-14T04:23:51.827Z,85.04
2022-12-14T04:26:28.029Z,84.53
2022-12-14T04:29:23.735Z,83.10
2022-12-14T04:32:01.173Z,82.95
2022-12-14T04:34:31.654Z,83.47
2022-12-14T04:37:04.307Z,83.89
2022-12-14T04:39:43.305Z,84.81
2022-12-14T04:42:14.072Z,83.94
2022-12-14T04:44:56.135Z,85.10
2022-12-14T04:47:35.392Z,84.10
2022-12-14T04:50:30.962Z,83.55
2022-12-14T04:53:05.744Z,83.59
2022-12-14T04:55:59.041Z,83.36
2022-12-14T04:58:30.360Z,82.05
2022-12-14T05:01:19.675Z,83.63
2022-12-14T05:04:25.735Z,84.27
2022-12-14T05:07:18.528Z,85.08
2022-12-14T05:10:14.500Z,84.74
2022-12-14T05:12:54.304Z,84.70
2022-12-14T05:15:28.462Z,83.78
2022-12-14T05:17:56.953Z,85.52
2022-12-14T05:20:25.174Z,84.65
2022-12-14T05:22:53.045Z,84.75
2022-12-14T05:25:20.868Z,85.71
2022-12-14T05:27:48.922Z,84.62
2022-12-14T05:30:17.253Z,84.26
2022-12-14T05:32:45.083Z,84.38
2022-12-14T05:35:14.238Z,84.28
2022-12-14T05:37:43.378Z,84.60
2022-12-14T05:40:11.919Z,84.72
2022-12-14T05:42:44.783Z,82.24
2022-12-14T05:45:15.350Z,87.78
2022-12-14T05:47:43.457Z,86.09
2022-12-14T05:50:11.287Z,85.59
2022-12-14T05:52:38.987Z,84.92
2022-12-14T05:55:07.580Z,84.52
2022-12-14T05:57:35.357Z,85.11
2022-12-14T06:00:04.777Z,84.83
2022-12-14T06:02:32.474Z,86.69
2022-12-14T06:05:00.647Z,86.02
2022-12-14T06:07:28.562Z,85.89
2022-12-14T06:09:56.421Z,85.08
2022-12-14T06:12:24.602Z,84.88
2022-12-14T06:14:55.337Z,84.49
2022-12-14T06:17:23.185Z,85.15
2022-12-14T06:19:52.115Z,84.67
2022-12-14T06:22:19.890Z,86.59
2022-12-14T06:24:47.682Z,84.56
2022-12-14T06:27:15.886Z,83.89
2022-12-14T06:29:43.685Z,84.92
2022-12-14T06:32:11.468Z,85.13
2022-12-14T06:34:42.316Z,85.18
2022-12-14T06:37:14.482Z,85.54
2022-12-14T06:39:42.602Z,83.11
2022-12-14T06:42:11.744Z,87.15
2022-12-14T06:44:39.414Z,87.80
2022-12-14T06:47:07.620Z,88.39
2022-12-14T06:49:35.761Z,86.16
2022-12-14T06:52:03.631Z,85.13
2022-12-14T06:54:31.841Z,89.75
2022-12-14T06:56:59.710Z,86.51
2022-12-14T06:59:27.745Z,90.69
2022-12-14T07:01:55.922Z,88.67
2022-12-14T07:04:24.878Z,91.71
2022-12-14T07:06:52.764Z,90.85
2022-12-14T07:09:21.067Z,91.81
2022-12-14T07:11:51.973Z,93.20
2022-12-14T07:14:21.889Z,92.43
2022-12-14T07:16:49.798Z,93.00
2022-12-14T07:19:18.420Z,95.14
2022-12-14T07:21:46.611Z,92.80
2022-12-14T07:24:14.988Z,95.15
2022-12-14T07:26:42.808Z,93.65
2022-12-14T07:29:12.338Z,94.28
2022-12-14T07:31:40.397Z,94.27
2022-12-14T07:34:08.351Z,94.36
2022-12-14T07:36:39.772Z,94.00
2022-12-14T07:39:08.334Z,94.52
2022-12-14T07:41:36.436Z,94.89
2022-12-14T07:44:04.208Z,94.81
2022-12-14T07:46:32.677Z,94.77
2022-12-14T07:49:01.824Z,94.76
2022-12-14T07:51:38.552Z,94.95
2022-12-14T07:54:07.424Z,94.20
2022-12-14T07:56:39.928Z,94.47
2022-12-14T07:59:08.915Z,94.81
2022-12-14T08:01:37.755Z,95.29
2022-12-14T08:04:11.872Z,94.91
2022-12-14T08:06:40.561Z,94.38
2022-12-14T08:09:10.404Z,94.62
2022-12-14T08:11:38.927Z,94.10
2022-12-14T08:14:12.298Z,94.59
2022-12-14T08:16:44.280Z,94.11
2022-12-14T08:19:13.353Z,93.68
2022-12-14T08:21:42.013Z,93.57
2022-12-14T08:24:13.771Z,93.92
2022-12-14T08:26:41.976Z,94.17
2022-12-14T08:29:12.570Z,94.43
2022-12-14T08:31:41.154Z,94.54
2022-12-14T08:34:10.193Z,93.70
2022-12-14T08:36:38.015Z,93.82
2022-12-14T08:39:08.752Z,93.34
2022-12-14T08:41:37.288Z,93.51
2022-12-14T08:44:05.500Z,92.41
2022-12-14T08:46:35.346Z,92.81
2022-12-14T08:49:04.176Z,92.21
2022-12-14T08:51:32.215Z,92.16
2022-12-14T08:54:00.128Z,91.67
2022-12-14T08:56:28.955Z,91.61
2022-12-14T08:58:57.473Z,92.60
2022-12-14T09:01:33.945Z,92.43
2022-12-14T09:04:08.682Z,91.99
2022-12-14T09:06:38.289Z,90.95
2022-12-14T09:09:13.622Z,90.37
2022-12-14T09:11:45.279Z,91.06
2022-12-14T09:14:13.711Z,90.19
2022-12-14T09:16:41.858Z,90.00
2022-12-14T09:19:09.883Z,89.32
2022-12-14T09:21:38.844Z,91.04
2022-12-14T09:24:07.240Z,88.84
2022-12-14T09:26:35.226Z,88.00
2022-12-14T09:29:03.830Z,90.21
2022-12-14T09:31:31.610Z,88.70
2022-12-14T09:33:59.919Z,91.12
2022-12-14T09:36:29.278Z,91.61
2022-12-14T09:38:58.165Z,91.94
2022-12-14T09:41:34.836Z,91.18
2022-12-14T09:44:25.381Z,91.19
2022-12-14T09:47:02.026Z,91.37
2022-12-14T09:49:40.530Z,91.08
2022-12-14T09:52:16.918Z,89.70
2022-12-14T09:54:49.794Z,91.37
2022-12-14T09:57:20.784Z,91.30
2022-12-14T09:59:48.792Z,90.25
2022-12-14T10:02:31.881Z,91.13
2022-12-14T10:05:35.040Z,90.05
2022-12-14T10:08:36.145Z,91.54
2022-12-14T10:11:18.610Z,92.12
2022-12-14T10:14:08.456Z,91.63
2022-12-14T10:16:54.079Z,90.73
2022-12-14T10:19:32.509Z,90.89
2022-12-14T10:22:12.388Z,91.09
2022-12-14T10:25:13.419Z,91.93
2022-12-14T10:28:09.938Z,90.43
2022-12-14T10:30:33.846Z,92.01
2022-12-14T10:33:13.990Z,91.04
2022-12-14T10:35:53.180Z,91.21
2022-12-14T10:38:33.213Z,90.82
2022-12-14T10:41:16.544Z,91.88
2022-12-14T10:43:56.925Z,92.66
2022-12-14T10:46:36.626Z,91.59
2022-12-14T10:49:20.874Z,93.84
2022-12-14T10:51:53.004Z,93.09
2022-12-14T10:54:39.332Z,91.46
2022-12-14T10:57:07.164Z,93.38
2022-12-14T10:59:42.417Z,94.70
2022-12-14T11:02:22.646Z,94.39
2022-12-14T11:05:11.808Z,93.52
2022-12-14T11:07:43.669Z,93.39
2022-12-14T11:10:27.472Z,94.51
2022-12-14T11:13:27.276Z,94.25
2022-12-14T11:15:57.764Z,93.52
2022-12-14T11:18:31.743Z,96.36
2022-12-14T11:21:03.163Z,94.89
2022-12-14T11:23:36.112Z,93.88
2022-12-14T11:26:15.685Z,95.92
2022-12-14T11:28:51.973Z,96.92
2022-12-14T11:31:52.726Z,98.09
2022-12-14T11:34:39.483Z,95.59
2022-12-14T11:37:30.139Z,94.21
2022-12-14T11:40:07.291Z,94.62
2022-12-14T11:42:37.216Z,92.41
2022-12-14T11:45:26.805Z,93.40
2022-12-14T11:48:16.196Z,94.11
2022-12-14T11:50:46.023Z,93.46
2022-12-14T11:53:16.937Z,95.11
2022-12-14T11:55:53.473Z,93.59
2022-12-14T11:58:27.839Z,94.60
2022-12-14T12:01:00.776Z,93.78
2022-12-14T12:03:38.477Z,93.04
2022-12-14T12:06:09.435Z,93.03
2022-12-14T12:08:42.750Z,94.54
2022-12-14T12:11:22.591Z,94.12
2022-12-14T12:13:52.684Z,92.58
2022-12-14T12:16:23.848Z,95.20
2022-12-14T12:19:12.981Z,94.69
2022-12-14T12:21:43.433Z,92.97
2022-12-14T12:24:19.378Z,93.80
2022-12-14T12:26:49.986Z,93.38
2022-12-14T12:29:43.675Z,93.21
2022-12-14T12:32:27.107Z,93.80
2022-12-14T12:35:12.022Z,93.54
2022-12-14T12:37:49.347Z,93.81
2022-12-14T12:40:34.582Z,94.50
2022-12-14T12:43:41.176Z,92.87
2022-12-14T12:46:20.601Z,93.37
2022-12-14T12:48:59.398Z,93.39
2022-12-14T12:51:40.578Z,93.18
2022-12-14T12:54:16.508Z,93.33
2022-12-14T12:56:58.194Z,95.07
2022-12-14T12:59:37.800Z,93.26
2022-12-14T13:02:36.434Z,93.75
2022-12-14T13:05:45.286Z,93.99
2022-12-14T13:08:17.092Z,94.68
2022-12-14T13:11:17.163Z,96.44
2022-12-14T13:13:37.015Z,94.57
2022-12-14T13:16:30.071Z,94.37
2022-12-14T13:19:40.973Z,92.70
2022-12-14T13:22:07.205Z,94.06
2022-12-14T13:24:37.131Z,93.60
2022-12-14T13:28:01.747Z,94.17
2022-12-14T13:30:44.765Z,99.11
2022-12-14T13:33:51.905Z,96.85
2022-12-14T13:36:52.086Z,97.80
2022-12-14T13:40:04.298Z,99.36
2022-12-14T13:42:57.854Z,99.12
2022-12-14T13:45:39.626Z,96.77
2022-12-14T13:48:28.319Z,100.00
2022-12-14T13:51:06.710Z,95.64
2022-12-14T13:53:40.870Z,98.32
2022-12-14T13:56:32.605Z,96.22
2022-12-14T13:59:22.641Z,97.62
2022-12-14T14:01:50.529Z,98.59
2022-12-14T14:04:27.437Z,98.35
2022-12-14T14:07:15.242Z,98.04
2022-12-14T14:09:55.704Z,100.00
2022-12-14T14:12:59.027Z,100.00
2022-12-14T14:16:27.934Z,94.88
2022-12-14T14:19:12.782Z,98.71
2022-12-14T14:22:06.258Z,96.80
2022-12-14T14:24:52.782Z,93.19
2022-12-14T14:27:26.338Z,91.15
2022-12-14T14:29:55.640Z,90.68
2022-12-14T14:32:43.164Z,91.65
2022-12-14T14:35:36.603Z,90.48
2022-12-14T14:38:28.412Z,89.81
2022-12-14T14:41:29.315Z,89.82
2022-12-14T14:44:03.518Z,89.78
2022-12-14T14:46:41.284Z,89.18
2022-12-14T14:49:24.900Z,89.08
2022-12-14T14:51:52.614Z,90.00
2022-12-14T14:54:56.180Z,88.49
2022-12-14T14:57:35.404Z,90.82
2022-12-14T15:00:07.123Z,91.02
2022-12-14T15:02:43.363Z,91.90
2022-12-14T15:08:39.618Z,92.08
2022-12-14T15:11:18.228Z,90.83
2022-12-14T15:14:26.288Z,90.91
2022-12-14T15:16:57.540Z,90.44
2022-12-14T15:19:28.153Z,90.97
2022-12-14T15:22:07.074Z,90.89
2022-12-14T15:24:40.724Z,89.95
2022-12-14T15:27:24.558Z,89.19
2022-12-14T15:29:55.041Z,88.98
2022-12-14T15:32:24.662Z,88.78
2022-12-14T15:35:26.860Z,88.91
2022-12-14T15:38:07.128Z,88.34
2022-12-14T15:40:35.916Z,89.10
2022-12-14T15:43:22.306Z,88.81
2022-12-14T15:45:56.008Z,88.33
2022-12-14T15:48:31.308Z,88.21
2022-12-14T15:51:04.212Z,88.29
2022-12-14T15:53:55.269Z,88.17
2022-12-14T15:56:40.297Z,88.49
2022-12-14T15:59:31.931Z,88.53
2022-12-14T16:02:18.260Z,89.37
2022-12-14T16:04:47.363Z,89.36
2022-12-14T16:07:28.822Z,89.33
2022-12-14T16:10:04.068Z,89.23
2022-12-14T16:12:44.657Z,90.61
2022-12-14T16:15:26.288Z,89.01
2022-12-14T16:18:01.662Z,88.37
2022-12-14T16:20:36.267Z,88.68
2022-12-14T16:23:07.201Z,89.30
2022-12-14T16:25:37.723Z,88.08
2022-12-14T16:28:21.592Z,90.11
2022-12-14T16:30:56.829Z,89.63
2022-12-14T16:33:25.727Z,88.04
2022-12-14T16:36:07.713Z,89.81
2022-12-14T16:38:56.989Z,89.82
2022-12-14T16:41:37.220Z,87.73
2022-12-14T16:44:08.247Z,92.11
2022-12-14T16:46:36.886Z,92.11
2022-12-14T16:49:44.518Z,92.08
2022-12-14T16:52:15.741Z,90.23
2022-12-14T16:54:43.999Z,91.60
2022-12-14T16:57:23.453Z,93.45
2022-12-14T17:00:01.457Z,93.43
2022-12-14T17:02:36.290Z,88.71
2022-12-14T17:05:17.933Z,89.70
2022-12-14T17:07:45.989Z,93.55
2022-12-14T17:10:20.183Z,93.54
2022-12-14T17:12:49.407Z,93.14
2022-12-14T17:15:19.895Z,90.67
2022-12-14T17:17:51.766Z,92.85
2022-12-14T17:20:29.498Z,90.81
2022-12-14T17:23:00.492Z,91.00
2022-12-14T17:25:30.264Z,96.08
2022-12-14T17:27:58.979Z,93.68
2022-12-14T17:30:27.582Z,91.22
2022-12-14T17:32:56.029Z,94.90
2022-12-14T17:35:26.229Z,92.04
2022-12-14T17:37:54.153Z,94.31
2022-12-14T17:40:22.517Z,94.47
2022-12-14T17:42:53.720Z,92.31
2022-12-14T17:45:24.865Z,92.92
2022-12-14T17:47:53.089Z,93.13
2022-12-14T17:50:22.353Z,93.72
2022-12-14T17:52:53.603Z,94.16
2022-12-14T17:55:24.703Z,94.60
2022-12-14T17:57:52.587Z,93.10
2022-12-14T18:00:42.362Z,93.87
2022-12-14T18:05:58.552Z,95.40
2022-12-14T18:08:27.144Z,94.96
2022-12-14T18:11:01.318Z,95.70
2022-12-14T18:13:31.738Z,94.85
2022-12-14T18:16:00.809Z,94.66
2022-12-14T18:18:29.851Z,93.84
2022-12-14T18:21:01.857Z,93.45
2022-12-14T18:23:31.064Z,96.10
2022-12-14T18:28:46.972Z,98.12
2022-12-14T18:31:36.801Z,95.59
2022-12-14T18:34:05.615Z,92.14
2022-12-14T18:36:33.508Z,93.87
2022-12-14T18:39:01.510Z,93.49
2022-12-14T18:41:31.404Z,95.61
2022-12-14T18:46:49.315Z,94.30
2022-12-14T18:49:17.405Z,95.30
2022-12-14T18:51:45.286Z,94.53
2022-12-14T18:54:13.499Z,93.93
2022-12-14T18:56:42.343Z,97.34
2022-12-14T18:59:10.161Z,92.96
2022-12-14T19:01:38.392Z,95.88
2022-12-14T19:04:07.814Z,95.84
2022-12-14T19:06:44.876Z,94.72
2022-12-14T19:09:16.953Z,94.41
2022-12-14T19:11:45.450Z,90.99
2022-12-14T19:14:13.664Z,96.35
2022-12-14T19:16:41.488Z,93.57
2022-12-14T19:19:09.653Z,94.93
2022-12-14T19:21:38.081Z,94.08
2022-12-14T19:24:08.796Z,88.47
2022-12-14T19:26:39.487Z,90.21
2022-12-14T19:29:07.387Z,91.50
2022-12-14T19:31:35.219Z,91.34
2022-12-14T19:34:03.586Z,91.05
2022-12-14T19:36:31.545Z,89.13
2022-12-14T19:38:59.600Z,86.52
2022-12-14T19:41:28.186Z,90.01
2022-12-14T19:43:57.842Z,90.47
2022-12-14T19:46:28.941Z,86.89
2022-12-14T19:48:59.454Z,87.58
2022-12-14T19:51:27.472Z,84.25
2022-12-14T19:53:55.867Z,92.82
2022-12-14T19:56:24.757Z,93.59
2022-12-14T19:59:01.105Z,92.24
2022-12-14T20:01:39.714Z,89.27
2022-12-14T20:04:11.920Z,91.30
2022-12-14T20:06:40.121Z,89.53
2022-12-14T20:09:08.622Z,89.44
2022-12-14T20:11:41.187Z,88.29
2022-12-14T20:14:10.417Z,89.90
2022-12-14T20:16:39.297Z,90.30
2022-12-14T20:19:07.622Z,88.55
2022-12-14T20:21:35.595Z,88.67
2022-12-14T20:24:04.241Z,87.90
2022-12-14T20:26:32.654Z,88.62
2022-12-14T20:29:06.206Z,89.63
2022-12-14T20:31:36.131Z,89.11
2022-12-14T20:34:07.584Z,89.43
2022-12-14T20:36:38.852Z,89.24
2022-12-14T20:39:10.321Z,88.93
2022-12-14T20:41:38.605Z,88.47
2022-12-14T20:44:14.064Z,88.23
2022-12-14T20:46:45.206Z,88.26
2022-12-14T20:49:19.352Z,88.17
2022-12-14T20:51:48.760Z,87.94
2022-12-14T20:54:19.928Z,87.86
2022-12-14T20:56:49.679Z,87.59
2022-12-14T20:59:17.910Z,87.68
2022-12-14T21:01:51.892Z,87.93
2022-12-14T21:04:22.621Z,87.83
2022-12-14T21:06:50.690Z,87.99
2022-12-14T21:09:18.572Z,88.19
2022-12-14T21:12:07.700Z,88.03
2022-12-14T21:14:45.019Z,88.67
2022-12-14T21:17:14.961Z,87.91
2022-12-14T21:19:45.990Z,87.64
2022-12-14T21:22:20.066Z,88.51
2022-12-14T21:25:05.675Z,88.22
2022-12-14T21:27:38.673Z,88.67
2022-12-14T21:30:10.340Z,88.85
2022-12-14T21:32:38.892Z,84.08
2022-12-14T21:35:07.773Z,88.25
2022-12-14T21:37:39.056Z,85.38
2022-12-14T21:40:08.686Z,87.34
2022-12-14T21:42:36.431Z,89.22
2022-12-14T21:45:05.206Z,88.79
2022-12-14T21:47:34.238Z,94.11
2022-12-14T21:50:02.158Z,85.81
2022-12-14T21:52:30.611Z,96.02
2022-12-14T21:55:00.113Z,92.65
2022-12-14T21:57:49.695Z,90.08
2022-12-14T22:00:19.006Z,91.32
2022-12-14T22:02:47.414Z,91.19
2022-12-14T22:05:15.587Z,83.11
2022-12-14T22:07:43.278Z,90.70
2022-12-14T22:10:11.546Z,90.00
2022-12-14T22:12:40.083Z,91.83
2022-12-14T22:15:08.610Z,86.25
2022-12-14T22:17:36.773Z,93.20
2022-12-14T22:20:05.435Z,88.81
2022-12-14T22:22:33.936Z,88.40
2022-12-14T22:25:02.268Z,87.44
2022-12-14T22:27:30.741Z,92.42
2022-12-14T22:29:58.621Z,91.02
2022-12-14T22:32:27.262Z,92.75
2022-12-14T22:34:58.201Z,94.19
2022-12-14T22:37:26.467Z,86.68
2022-12-14T22:39:54.258Z,88.22
2022-12-14T22:42:22.459Z,87.36
2022-12-14T22:44:50.708Z,90.13
2022-12-14T22:47:18.916Z,88.81
2022-12-14T22:49:47.407Z,94.63
2022-12-14T22:52:18.630Z,92.01
2022-12-14T22:54:51.706Z,92.72
2022-12-14T22:57:21.459Z,95.30
2022-12-14T22:59:56.636Z,92.19
2022-12-14T23:02:25.126Z,89.76
2022-12-14T23:04:53.081Z,94.18
2022-12-14T23:07:21.041Z,96.62
2022-12-14T23:10:10.628Z,95.36
2022-12-14T23:12:56.972Z,91.77
2022-12-14T23:15:44.000Z,91.25
2022-12-14T23:18:30.394Z,90.59
2022-12-14T23:21:16.981Z,90.15
2022-12-14T23:24:05.124Z,89.73
2022-12-14T23:26:52.666Z,88.84
2022-12-14T23:29:39.033Z,88.83
2022-12-14T23:32:25.440Z,88.46
2022-12-14T23:35:14.420Z,88.17
2022-12-14T23:38:01.088Z,88.22
2022-12-14T23:40:48.039Z,88.24
2022-12-14T23:43:37.376Z,88.34
2022-12-14T23:46:25.462Z,88.43
2022-12-14T23:49:16.023Z,88.60
2022-12-14T23:52:02.752Z,88.57
2022-12-14T23:54:49.573Z,88.58
2022-12-14T23:57:36.773Z,88.79
